LTCC

Details ICAO LTCC (DIY)
Name DIYARBAKIR
Region Turkey
Timezone Europe/Istanbul (UTC+3.0)
Plans Departing 51
Arriving 50
Stats Elevation 2,251 ft / 686 m (AMSL)
Location 37.893898° 40.201017°
Runways 1
Magnetic Variation 5.640° E
Sunrise 2017-12-18 04:30:56 UTC / 2017-12-18 07:30:56 Local
Sunset 2017-12-18 14:03:17 UTC / 2017-12-18 17:03:17 Local
Advertisement - Login to hide

Runways

ID Width Length Bearing (true) Bearing (mag) Surface Threshold Offset Overrun Length
16 148 ft / 45 m 11,663 ft / 3,555 m 162.66° 157.02° Concrete 0 ft / 0 m 507 ft / 155 m
34 148 ft / 45 m 11,663 ft / 3,555 m 342.67° 337.03° Concrete 0 ft / 0 m 495 ft / 151 m

Map

Weather


0- 5 10 15 20 25 30 35+ Temperature / ° C

Clouds and Precipitation
Forecast for 2017-12-18 18:00 UTC. Updated an hour ago

Ground ~20,000 ft ~40,000 ft Winds

METAR

LTCC 181550Z 06003KT CAVOK 09/03 Q1023 NOSIG

TAF

Not found

Frequencies

Recorded 122.42 MHz ATIS
Tower 122.10 MHz TWR
Approach 122.10 MHz APP
Ground 122.10 MHz GND
Tower 118.10 MHz TWR
Warning: Do not use this data for real-world aviation or navigation. No guarantee of current accuracy is given.